DLH576L LSZH-EGLL
Flight info
| Callsign | DLH576L |
|---|---|
| Flight time | 1h 17m |
| Altitude | 34000 |
| Route | VEBIT T51 LASUN T14 LUMEL T10 TORPA DCT REKLA DCT RLP UL613 DIDOR UT10 ALESO |
| Aircraft | CRJ7/M-SDFGIRWY/S |
Departure
| Time | 2026-05-05 07:28 |
|---|---|
| Airport | Zürich Airport (LSZH) |
Arrival
| Time | 2026-05-05 08:46 |
|---|---|
| Airport | London Heathrow Airport (EGLL) |
| Time | Latitude | Longitude | Altitude | Speed | Heading |
|---|---|---|---|---|---|
| 2026-05-05 06:57 | 47.45418 | 8.55872 | 1398 ft | 0 kts | 186° |
| 2026-05-05 07:01 | 47.46172 | 8.55491 | 1402 ft | 0 kts | 185° |
| 2026-05-05 07:17 | 47.46180 | 8.55492 | 1395 ft | 2 kts | 184° |
| 2026-05-05 07:18 | 47.46196 | 8.55494 | 1395 ft | 2 kts | 184° |
| 2026-05-05 07:18 | 47.46213 | 8.55495 | 1399 ft | 2 kts | 182° |
| 2026-05-05 07:18 | 47.46230 | 8.55496 | 1395 ft | 2 kts | 178° |
| 2026-05-05 07:18 | 47.46246 | 8.55493 | 1398 ft | 2 kts | 161° |
| 2026-05-05 07:19 | 47.46257 | 8.55478 | 1400 ft | 1 kts | 103° |
| 2026-05-05 07:19 | 47.46257 | 8.55474 | 1400 ft | 0 kts | 99° |
| 2026-05-05 07:21 | 47.46257 | 8.55475 | 1400 ft | 0 kts | 99° |
| 2026-05-05 07:22 | 47.46252 | 8.55543 | 1397 ft | 11 kts | 94° |
| 2026-05-05 07:22 | 47.46246 | 8.55656 | 1395 ft | 12 kts | 96° |
| 2026-05-05 07:22 | 47.46235 | 8.55792 | 1397 ft | 15 kts | 96° |
| 2026-05-05 07:23 | 47.46216 | 8.55967 | 1398 ft | 19 kts | 116° |
| 2026-05-05 07:23 | 47.46124 | 8.56108 | 1395 ft | 19 kts | 139° |
| 2026-05-05 07:23 | 47.46025 | 8.56246 | 1395 ft | 20 kts | 137° |
| 2026-05-05 07:23 | 47.45921 | 8.56384 | 1400 ft | 20 kts | 139° |
| 2026-05-05 07:24 | 47.45818 | 8.56530 | 1400 ft | 21 kts | 126° |
| 2026-05-05 07:24 | 47.45788 | 8.56739 | 1397 ft | 21 kts | 95° |
| 2026-05-05 07:24 | 47.45777 | 8.56890 | 1400 ft | 2 kts | 96° |
| 2026-05-05 07:24 | 47.45777 | 8.56895 | 1399 ft | 2 kts | 96° |
| 2026-05-05 07:25 | 47.45771 | 8.56965 | 1395 ft | 11 kts | 102° |
| 2026-05-05 07:25 | 47.45744 | 8.57026 | 1399 ft | 0 kts | 145° |
| 2026-05-05 07:25 | 47.45744 | 8.57027 | 1399 ft | 1 kts | 145° |
| 2026-05-05 07:25 | 47.45713 | 8.57039 | 1397 ft | 6 kts | 179° |
| 2026-05-05 07:26 | 47.45669 | 8.57003 | 1397 ft | 9 kts | 248° |
| 2026-05-05 07:26 | 47.45666 | 8.56957 | 1396 ft | 0 kts | 274° |
| 2026-05-05 07:27 | 47.45668 | 8.56918 | 1396 ft | 20 kts | 275° |
| 2026-05-05 07:27 | 47.45690 | 8.56623 | 1394 ft | 65 kts | 276° |
| 2026-05-05 07:27 | 47.45756 | 8.55678 | 1395 ft | 119 kts | 276° |
| 2026-05-05 07:28 | 47.45859 | 8.54223 | 1432 ft | 155 kts | 276° |
| 2026-05-05 07:28 | 47.45976 | 8.52693 | 2058 ft | 146 kts | 277° |
| 2026-05-05 07:28 | 47.46146 | 8.50668 | 2761 ft | 150 kts | 277° |
| 2026-05-05 07:28 | 47.46234 | 8.49611 | 2998 ft | 160 kts | 277° |
| 2026-05-05 07:29 | 47.46380 | 8.47855 | 3123 ft | 189 kts | 277° |
| 2026-05-05 07:29 | 47.46532 | 8.46081 | 3239 ft | 212 kts | 277° |
| 2026-05-05 07:29 | 47.46588 | 8.43784 | 3395 ft | 239 kts | 255° |
| 2026-05-05 07:29 | 47.45819 | 8.41855 | 3924 ft | 246 kts | 222° |
| 2026-05-05 07:30 | 47.44581 | 8.40296 | 4693 ft | 249 kts | 219° |
| 2026-05-05 07:30 | 47.41685 | 8.37212 | 5964 ft | 268 kts | 212° |
| 2026-05-05 07:30 | 47.40102 | 8.35681 | 6625 ft | 273 kts | 212° |
| 2026-05-05 07:31 | 47.38644 | 8.33829 | 7337 ft | 277 kts | 233° |
| 2026-05-05 07:31 | 47.37641 | 8.31368 | 8079 ft | 279 kts | 240° |
| 2026-05-05 07:31 | 47.36963 | 8.29418 | 8619 ft | 281 kts | 242° |
| 2026-05-05 07:31 | 47.36087 | 8.26773 | 9519 ft | 282 kts | 242° |
| 2026-05-05 07:32 | 47.35231 | 8.24162 | 10211 ft | 291 kts | 242° |
| 2026-05-05 07:32 | 47.34449 | 8.21828 | 10493 ft | 307 kts | 241° |
| 2026-05-05 07:32 | 47.33434 | 8.18925 | 11007 ft | 319 kts | 240° |
| 2026-05-05 07:32 | 47.32402 | 8.16015 | 11813 ft | 321 kts | 240° |
| 2026-05-05 07:33 | 47.31343 | 8.13028 | 12637 ft | 323 kts | 239° |
| 2026-05-05 07:33 | 47.30308 | 8.10119 | 13455 ft | 325 kts | 239° |
| 2026-05-05 07:33 | 47.29243 | 8.07132 | 14186 ft | 328 kts | 239° |
| 2026-05-05 07:33 | 47.28167 | 8.04116 | 14859 ft | 331 kts | 239° |
| 2026-05-05 07:34 | 47.27143 | 8.01066 | 15480 ft | 337 kts | 246° |
| 2026-05-05 07:34 | 47.26879 | 7.97551 | 16071 ft | 352 kts | 274° |
| 2026-05-05 07:34 | 47.27755 | 7.94158 | 16701 ft | 365 kts | 299° |
| 2026-05-05 07:34 | 47.28925 | 7.91716 | 17199 ft | 369 kts | 302° |
| 2026-05-05 07:35 | 47.30407 | 7.88558 | 17800 ft | 371 kts | 298° |
| 2026-05-05 07:35 | 47.31699 | 7.85301 | 18372 ft | 372 kts | 294° |
| 2026-05-05 07:35 | 47.32849 | 7.81842 | 18887 ft | 373 kts | 290° |
| 2026-05-05 07:35 | 47.33948 | 7.78129 | 19439 ft | 376 kts | 289° |
| 2026-05-05 07:36 | 47.34840 | 7.75092 | 19874 ft | 379 kts | 290° |
| 2026-05-05 07:36 | 47.35927 | 7.71464 | 20402 ft | 382 kts | 290° |
| 2026-05-05 07:36 | 47.37001 | 7.67905 | 20867 ft | 385 kts | 291° |
| 2026-05-05 07:36 | 47.38118 | 7.64272 | 21340 ft | 388 kts | 291° |
| 2026-05-05 07:37 | 47.39256 | 7.60585 | 21786 ft | 391 kts | 291° |
| 2026-05-05 07:37 | 47.40384 | 7.56917 | 22233 ft | 394 kts | 291° |
| 2026-05-05 07:37 | 47.41308 | 7.53070 | 22621 ft | 392 kts | 276° |
| 2026-05-05 07:37 | 47.41513 | 7.49059 | 23031 ft | 392 kts | 267° |
| 2026-05-05 07:38 | 47.41418 | 7.45035 | 23426 ft | 394 kts | 264° |
| 2026-05-05 07:38 | 47.41256 | 7.40989 | 23751 ft | 397 kts | 264° |
| 2026-05-05 07:38 | 47.41102 | 7.36917 | 24120 ft | 399 kts | 264° |
| 2026-05-05 07:38 | 47.40999 | 7.32804 | 24463 ft | 401 kts | 265° |
| 2026-05-05 07:39 | 47.40933 | 7.28681 | 24797 ft | 403 kts | 265° |
| 2026-05-05 07:39 | 47.40858 | 7.24531 | 25125 ft | 405 kts | 265° |
| 2026-05-05 07:39 | 47.40778 | 7.20377 | 25452 ft | 407 kts | 265° |
| 2026-05-05 07:39 | 47.40713 | 7.16195 | 25728 ft | 410 kts | 268° |
| 2026-05-05 07:40 | 47.40961 | 7.12644 | 25983 ft | 415 kts | 276° |
| 2026-05-05 07:40 | 47.41560 | 7.08457 | 26280 ft | 418 kts | 280° |
| 2026-05-05 07:40 | 47.42279 | 7.04282 | 26566 ft | 420 kts | 281° |
| 2026-05-05 07:40 | 47.42996 | 7.00084 | 26861 ft | 422 kts | 280° |
| 2026-05-05 07:41 | 47.43445 | 6.97227 | 27055 ft | 423 kts | 279° |
| 2026-05-05 07:41 | 47.44071 | 6.92911 | 27319 ft | 424 kts | 278° |
| 2026-05-05 07:41 | 47.44699 | 6.88591 | 27584 ft | 426 kts | 278° |
| 2026-05-05 07:41 | 47.45318 | 6.84308 | 27823 ft | 428 kts | 278° |
| 2026-05-05 07:42 | 47.45942 | 6.79992 | 28070 ft | 430 kts | 278° |
| 2026-05-05 07:42 | 47.46567 | 6.75660 | 28296 ft | 432 kts | 278° |
| 2026-05-05 07:42 | 47.47196 | 6.71302 | 28495 ft | 434 kts | 278° |
| 2026-05-05 07:42 | 47.47823 | 6.66933 | 28743 ft | 435 kts | 277° |
| 2026-05-05 07:43 | 47.48320 | 6.62519 | 28961 ft | 434 kts | 272° |
| 2026-05-05 07:43 | 47.48616 | 6.58021 | 29169 ft | 435 kts | 270° |
| 2026-05-05 07:43 | 47.48858 | 6.53559 | 29381 ft | 436 kts | 270° |
| 2026-05-05 07:43 | 47.49116 | 6.49077 | 29572 ft | 439 kts | 270° |
| 2026-05-05 07:44 | 47.49427 | 6.44580 | 29769 ft | 440 kts | 271° |
| 2026-05-05 07:44 | 47.49747 | 6.40068 | 29964 ft | 442 kts | 271° |
| 2026-05-05 07:44 | 47.50068 | 6.35538 | 30129 ft | 443 kts | 271° |
| 2026-05-05 07:44 | 47.50384 | 6.31052 | 30294 ft | 444 kts | 271° |
| 2026-05-05 07:45 | 47.50704 | 6.26461 | 30472 ft | 444 kts | 271° |
| 2026-05-05 07:45 | 47.51017 | 6.21918 | 30632 ft | 445 kts | 270° |
| 2026-05-05 07:45 | 47.51337 | 6.17289 | 30796 ft | 446 kts | 270° |
| 2026-05-05 07:45 | 47.51662 | 6.12527 | 30906 ft | 448 kts | 270° |
| 2026-05-05 07:46 | 47.51983 | 6.07824 | 31105 ft | 447 kts | 270° |
| 2026-05-05 07:46 | 47.52294 | 6.03253 | 31325 ft | 446 kts | 270° |
| 2026-05-05 07:46 | 47.52602 | 5.98692 | 31523 ft | 445 kts | 270° |
| 2026-05-05 07:46 | 47.52976 | 5.94142 | 31700 ft | 449 kts | 276° |
| 2026-05-05 07:47 | 47.53958 | 5.89717 | 31855 ft | 458 kts | 290° |
| 2026-05-05 07:47 | 47.55473 | 5.85485 | 32037 ft | 460 kts | 294° |
| 2026-05-05 07:47 | 47.57066 | 5.81320 | 32215 ft | 460 kts | 295° |
| 2026-05-05 07:47 | 47.58712 | 5.77216 | 32379 ft | 461 kts | 296° |
| 2026-05-05 07:48 | 47.60549 | 5.73311 | 32523 ft | 466 kts | 306° |
| 2026-05-05 07:48 | 47.62794 | 5.69737 | 32688 ft | 468 kts | 310° |
| 2026-05-05 07:48 | 47.65136 | 5.66281 | 32844 ft | 468 kts | 311° |
| 2026-05-05 07:48 | 47.67416 | 5.62835 | 33001 ft | 467 kts | 309° |
| 2026-05-05 07:49 | 47.69668 | 5.59207 | 33173 ft | 465 kts | 307° |
| 2026-05-05 07:49 | 47.71870 | 5.55577 | 33334 ft | 464 kts | 307° |
| 2026-05-05 07:49 | 47.74034 | 5.52049 | 33495 ft | 464 kts | 308° |
| 2026-05-05 07:49 | 47.76214 | 5.48512 | 33669 ft | 463 kts | 308° |
| 2026-05-05 07:50 | 47.78385 | 5.44980 | 33796 ft | 463 kts | 308° |
| 2026-05-05 07:50 | 47.80556 | 5.41440 | 33852 ft | 465 kts | 308° |
| 2026-05-05 07:50 | 47.84958 | 5.34253 | 33879 ft | 469 kts | 308° |
| 2026-05-05 07:51 | 47.89357 | 5.27052 | 33890 ft | 474 kts | 308° |
| 2026-05-05 07:51 | 47.93822 | 5.19721 | 33889 ft | 478 kts | 308° |
| 2026-05-05 07:52 | 47.98303 | 5.12346 | 33890 ft | 482 kts | 308° |
| 2026-05-05 07:52 | 48.02839 | 5.04856 | 33877 ft | 485 kts | 308° |
| 2026-05-05 07:53 | 48.06608 | 4.98618 | 33881 ft | 487 kts | 308° |
| 2026-05-05 07:53 | 48.11186 | 4.91022 | 33876 ft | 489 kts | 308° |
| 2026-05-05 07:54 | 48.15745 | 4.83430 | 33883 ft | 491 kts | 308° |
| 2026-05-05 07:54 | 48.20366 | 4.75716 | 33871 ft | 490 kts | 308° |
| 2026-05-05 07:55 | 48.24939 | 4.68061 | 33875 ft | 488 kts | 308° |
| 2026-05-05 07:55 | 48.29482 | 4.60438 | 33879 ft | 485 kts | 307° |
| 2026-05-05 07:56 | 48.33955 | 4.52897 | 33872 ft | 482 kts | 308° |
| 2026-05-05 07:56 | 48.38400 | 4.45388 | 33871 ft | 479 kts | 308° |
| 2026-05-05 07:57 | 48.42849 | 4.37847 | 33876 ft | 478 kts | 308° |
| 2026-05-05 07:57 | 48.47251 | 4.30376 | 33882 ft | 476 kts | 307° |
| 2026-05-05 07:58 | 48.51639 | 4.22900 | 33868 ft | 475 kts | 307° |
| 2026-05-05 07:58 | 48.56003 | 4.15443 | 33872 ft | 473 kts | 307° |
| 2026-05-05 07:59 | 48.60348 | 4.08002 | 33875 ft | 471 kts | 307° |
| 2026-05-05 07:59 | 48.64626 | 4.00651 | 33877 ft | 470 kts | 307° |
| 2026-05-05 08:00 | 48.68569 | 3.93863 | 33878 ft | 469 kts | 307° |
| 2026-05-05 08:00 | 48.72863 | 3.87088 | 33878 ft | 472 kts | 316° |
| 2026-05-05 08:01 | 48.77885 | 3.81468 | 33889 ft | 475 kts | 324° |
| 2026-05-05 08:01 | 48.83488 | 3.76150 | 33889 ft | 475 kts | 325° |
| 2026-05-05 08:02 | 48.89041 | 3.70746 | 33878 ft | 473 kts | 323° |
| 2026-05-05 08:02 | 48.94586 | 3.65223 | 33870 ft | 473 kts | 323° |
| 2026-05-05 08:03 | 49.00081 | 3.59742 | 33866 ft | 472 kts | 323° |
| 2026-05-05 08:03 | 49.05599 | 3.54230 | 33874 ft | 471 kts | 323° |
| 2026-05-05 08:04 | 49.10709 | 3.49104 | 33882 ft | 470 kts | 323° |
| 2026-05-05 08:04 | 49.15347 | 3.44443 | 33873 ft | 471 kts | 323° |
| 2026-05-05 08:05 | 49.20043 | 3.39716 | 33881 ft | 471 kts | 323° |
| 2026-05-05 08:05 | 49.25443 | 3.34278 | 33887 ft | 471 kts | 323° |
| 2026-05-05 08:06 | 49.30811 | 3.28544 | 33878 ft | 468 kts | 315° |
| 2026-05-05 08:06 | 49.35425 | 3.21582 | 33882 ft | 463 kts | 307° |
| 2026-05-05 08:07 | 49.39642 | 3.14116 | 33884 ft | 463 kts | 307° |
| 2026-05-05 08:07 | 49.43922 | 3.06693 | 33924 ft | 465 kts | 308° |
| 2026-05-05 08:08 | 49.48246 | 2.99296 | 33917 ft | 466 kts | 308° |
| 2026-05-05 08:08 | 49.52582 | 2.91848 | 33896 ft | 466 kts | 308° |
| 2026-05-05 08:09 | 49.56593 | 2.84937 | 33888 ft | 466 kts | 308° |
| 2026-05-05 08:09 | 49.60934 | 2.77440 | 33891 ft | 466 kts | 308° |
| 2026-05-05 08:10 | 49.65242 | 2.69980 | 33894 ft | 465 kts | 308° |
| 2026-05-05 08:10 | 49.69561 | 2.62458 | 33897 ft | 465 kts | 307° |
| 2026-05-05 08:11 | 49.73512 | 2.55676 | 33907 ft | 464 kts | 308° |
| 2026-05-05 08:11 | 49.77171 | 2.49338 | 33907 ft | 464 kts | 308° |
| 2026-05-05 08:12 | 49.81426 | 2.41949 | 33907 ft | 464 kts | 308° |
| 2026-05-05 08:12 | 49.85767 | 2.34389 | 33904 ft | 463 kts | 307° |
| 2026-05-05 08:13 | 49.89973 | 2.27058 | 33903 ft | 462 kts | 307° |
| 2026-05-05 08:13 | 49.94502 | 2.19618 | 33910 ft | 464 kts | 313° |
| 2026-05-05 08:14 | 49.99283 | 2.12759 | 33915 ft | 464 kts | 313° |
| 2026-05-05 08:14 | 50.03940 | 2.05823 | 33911 ft | 463 kts | 312° |
| 2026-05-05 08:15 | 50.08575 | 1.98851 | 33918 ft | 463 kts | 312° |
| 2026-05-05 08:15 | 50.13205 | 1.91877 | 33916 ft | 463 kts | 312° |
| 2026-05-05 08:16 | 50.17860 | 1.84855 | 33922 ft | 462 kts | 311° |
| 2026-05-05 08:16 | 50.22448 | 1.77848 | 33923 ft | 462 kts | 311° |
| 2026-05-05 08:17 | 50.27043 | 1.70854 | 33935 ft | 461 kts | 311° |
| 2026-05-05 08:17 | 50.31626 | 1.63849 | 33932 ft | 460 kts | 311° |
| 2026-05-05 08:18 | 50.36229 | 1.56789 | 33935 ft | 460 kts | 311° |
| 2026-05-05 08:18 | 50.40821 | 1.49732 | 33932 ft | 459 kts | 311° |
| 2026-05-05 08:19 | 50.45393 | 1.42682 | 33935 ft | 457 kts | 311° |
| 2026-05-05 08:19 | 50.49923 | 1.35622 | 33928 ft | 454 kts | 310° |
| 2026-05-05 08:20 | 50.52085 | 1.31994 | 33320 ft | 453 kts | 308° |
| 2026-05-05 08:20 | 50.54212 | 1.28293 | 32489 ft | 447 kts | 308° |
| 2026-05-05 08:20 | 50.56283 | 1.24673 | 31696 ft | 442 kts | 308° |
| 2026-05-05 08:20 | 50.58319 | 1.21085 | 30927 ft | 438 kts | 308° |
| 2026-05-05 08:21 | 50.60335 | 1.17502 | 30178 ft | 435 kts | 308° |
| 2026-05-05 08:21 | 50.62348 | 1.13893 | 29324 ft | 431 kts | 308° |
| 2026-05-05 08:21 | 50.64314 | 1.10344 | 28503 ft | 428 kts | 308° |
| 2026-05-05 08:21 | 50.66255 | 1.06818 | 27692 ft | 425 kts | 308° |
| 2026-05-05 08:22 | 50.68352 | 1.03462 | 26882 ft | 425 kts | 320° |
| 2026-05-05 08:22 | 50.70763 | 1.00679 | 26113 ft | 423 kts | 322° |
| 2026-05-05 08:22 | 50.73099 | 0.97891 | 25366 ft | 419 kts | 319° |
| 2026-05-05 08:22 | 50.75262 | 0.94832 | 24642 ft | 416 kts | 314° |
| 2026-05-05 08:23 | 50.77302 | 0.91519 | 23925 ft | 414 kts | 311° |
| 2026-05-05 08:23 | 50.79243 | 0.88263 | 23181 ft | 412 kts | 312° |
| 2026-05-05 08:23 | 50.81210 | 0.84971 | 22369 ft | 411 kts | 313° |
| 2026-05-05 08:23 | 50.83202 | 0.81750 | 21574 ft | 409 kts | 314° |
| 2026-05-05 08:24 | 50.85193 | 0.78562 | 20809 ft | 407 kts | 314° |
| 2026-05-05 08:24 | 50.87183 | 0.75388 | 20059 ft | 405 kts | 314° |
| 2026-05-05 08:24 | 50.89156 | 0.72227 | 19326 ft | 402 kts | 314° |
| 2026-05-05 08:24 | 50.90478 | 0.70094 | 18842 ft | 400 kts | 314° |
| 2026-05-05 08:25 | 50.92442 | 0.66937 | 18354 ft | 391 kts | 314° |
| 2026-05-05 08:25 | 50.94311 | 0.63922 | 18416 ft | 368 kts | 314° |
| 2026-05-05 08:25 | 50.96086 | 0.61057 | 18435 ft | 365 kts | 314° |
| 2026-05-05 08:25 | 50.97940 | 0.58062 | 18109 ft | 369 kts | 315° |
| 2026-05-05 08:26 | 50.99702 | 0.55228 | 17597 ft | 367 kts | 314° |
| 2026-05-05 08:26 | 51.01515 | 0.52294 | 17001 ft | 365 kts | 314° |
| 2026-05-05 08:26 | 51.03283 | 0.49423 | 16427 ft | 363 kts | 314° |
| 2026-05-05 08:26 | 51.05048 | 0.46558 | 15870 ft | 360 kts | 314° |
| 2026-05-05 08:27 | 51.06874 | 0.43633 | 15300 ft | 357 kts | 315° |
| 2026-05-05 08:27 | 51.08630 | 0.40934 | 14776 ft | 354 kts | 316° |
| 2026-05-05 08:27 | 51.10397 | 0.38243 | 14241 ft | 351 kts | 316° |
| 2026-05-05 08:27 | 51.12152 | 0.35569 | 13701 ft | 348 kts | 316° |
| 2026-05-05 08:28 | 51.13918 | 0.32879 | 13113 ft | 345 kts | 316° |
| 2026-05-05 08:28 | 51.15643 | 0.30238 | 12552 ft | 341 kts | 316° |
| 2026-05-05 08:28 | 51.17483 | 0.27420 | 11964 ft | 338 kts | 316° |
| 2026-05-05 08:28 | 51.19045 | 0.25015 | 11434 ft | 335 kts | 316° |
| 2026-05-05 08:29 | 51.20562 | 0.22695 | 11348 ft | 319 kts | 316° |
| 2026-05-05 08:29 | 51.22136 | 0.20284 | 11319 ft | 303 kts | 316° |
| 2026-05-05 08:29 | 51.23693 | 0.17889 | 11190 ft | 288 kts | 317° |
| 2026-05-05 08:30 | 51.26447 | 0.13678 | 11141 ft | 266 kts | 317° |
| 2026-05-05 08:30 | 51.27787 | 0.11668 | 11048 ft | 259 kts | 322° |
| 2026-05-05 08:30 | 51.29482 | 0.10584 | 10776 ft | 257 kts | 358° |
| 2026-05-05 08:30 | 51.31195 | 0.10627 | 10552 ft | 255 kts | 352° |
| 2026-05-05 08:31 | 51.32734 | 0.09442 | 10310 ft | 255 kts | 315° |
| 2026-05-05 08:31 | 51.33548 | 0.06978 | 10065 ft | 256 kts | 279° |
| 2026-05-05 08:31 | 51.33648 | 0.04100 | 9850 ft | 254 kts | 271° |
| 2026-05-05 08:31 | 51.33615 | 0.01505 | 9644 ft | 254 kts | 269° |
| 2026-05-05 08:32 | 51.33526 | -0.01159 | 9418 ft | 253 kts | 267° |
| 2026-05-05 08:32 | 51.33396 | -0.04065 | 9165 ft | 253 kts | 266° |
| 2026-05-05 08:32 | 51.33248 | -0.06898 | 8910 ft | 252 kts | 267° |
| 2026-05-05 08:32 | 51.33208 | -0.09694 | 8653 ft | 251 kts | 272° |
| 2026-05-05 08:33 | 51.33317 | -0.12468 | 8412 ft | 249 kts | 276° |
| 2026-05-05 08:33 | 51.33490 | -0.15161 | 8166 ft | 248 kts | 277° |
| 2026-05-05 08:33 | 51.33667 | -0.17938 | 7910 ft | 248 kts | 277° |
| 2026-05-05 08:33 | 51.33773 | -0.19760 | 7737 ft | 247 kts | 276° |
| 2026-05-05 08:34 | 51.33961 | -0.23326 | 7404 ft | 246 kts | 276° |
| 2026-05-05 08:34 | 51.34046 | -0.25180 | 7224 ft | 246 kts | 275° |
| 2026-05-05 08:34 | 51.34165 | -0.27931 | 6953 ft | 245 kts | 275° |
| 2026-05-05 08:34 | 51.34272 | -0.30646 | 6696 ft | 244 kts | 275° |
| 2026-05-05 08:35 | 51.34387 | -0.33280 | 6442 ft | 243 kts | 275° |
| 2026-05-05 08:35 | 51.34514 | -0.36001 | 6135 ft | 243 kts | 276° |
| 2026-05-05 08:35 | 51.34644 | -0.38765 | 5821 ft | 243 kts | 276° |
| 2026-05-05 08:35 | 51.34762 | -0.41290 | 5506 ft | 246 kts | 276° |
| 2026-05-05 08:36 | 51.34905 | -0.44173 | 5480 ft | 274 kts | 276° |
| 2026-05-05 08:36 | 51.35056 | -0.47223 | 5519 ft | 271 kts | 276° |
| 2026-05-05 08:36 | 51.35197 | -0.50215 | 5528 ft | 264 kts | 276° |
| 2026-05-05 08:36 | 51.35329 | -0.53216 | 5530 ft | 261 kts | 276° |
| 2026-05-05 08:37 | 51.35452 | -0.56062 | 5532 ft | 260 kts | 276° |
| 2026-05-05 08:37 | 51.35578 | -0.58944 | 5525 ft | 258 kts | 276° |
| 2026-05-05 08:37 | 51.35711 | -0.61778 | 5507 ft | 253 kts | 276° |
| 2026-05-05 08:37 | 51.35842 | -0.64583 | 5501 ft | 248 kts | 276° |
| 2026-05-05 08:38 | 51.36075 | -0.67319 | 5489 ft | 242 kts | 283° |
| 2026-05-05 08:38 | 51.36449 | -0.69909 | 5495 ft | 237 kts | 287° |
| 2026-05-05 08:38 | 51.36863 | -0.72440 | 5488 ft | 233 kts | 287° |
| 2026-05-05 08:38 | 51.37417 | -0.74852 | 5477 ft | 224 kts | 309° |
| 2026-05-05 08:39 | 51.38624 | -0.76188 | 5280 ft | 213 kts | 348° |
| 2026-05-05 08:39 | 51.40009 | -0.76338 | 4613 ft | 229 kts | 357° |
| 2026-05-05 08:39 | 51.41603 | -0.77080 | 3870 ft | 246 kts | 342° |
| 2026-05-05 08:39 | 51.43197 | -0.78188 | 3418 ft | 248 kts | 336° |
| 2026-05-05 08:40 | 51.44674 | -0.79220 | 3196 ft | 237 kts | 351° |
| 2026-05-05 08:40 | 51.46210 | -0.78837 | 3089 ft | 221 kts | 32° |
| 2026-05-05 08:40 | 51.47151 | -0.77023 | 3037 ft | 210 kts | 65° |
| 2026-05-05 08:40 | 51.47261 | -0.74743 | 3020 ft | 203 kts | 103° |
| 2026-05-05 08:41 | 51.46656 | -0.72774 | 3021 ft | 194 kts | 117° |
| 2026-05-05 08:41 | 51.45976 | -0.70919 | 2928 ft | 187 kts | 110° |
| 2026-05-05 08:41 | 51.45880 | -0.68973 | 2733 ft | 172 kts | 71° |
| 2026-05-05 08:41 | 51.46293 | -0.67209 | 2556 ft | 163 kts | 66° |
| 2026-05-05 08:42 | 51.46658 | -0.65544 | 2382 ft | 149 kts | 69° |
| 2026-05-05 08:42 | 51.46923 | -0.64171 | 2160 ft | 138 kts | 70° |
| 2026-05-05 08:42 | 51.47159 | -0.62746 | 1944 ft | 131 kts | 72° |
| 2026-05-05 08:42 | 51.47350 | -0.61310 | 1760 ft | 129 kts | 75° |
| 2026-05-05 08:43 | 51.47496 | -0.59885 | 1536 ft | 130 kts | 78° |
| 2026-05-05 08:43 | 51.47603 | -0.58474 | 1320 ft | 119 kts | 79° |
| 2026-05-05 08:43 | 51.47675 | -0.57151 | 1127 ft | 121 kts | 81° |
| 2026-05-05 08:43 | 51.47718 | -0.55752 | 1057 ft | 130 kts | 85° |
| 2026-05-05 08:44 | 51.47735 | -0.54306 | 881 ft | 125 kts | 86° |
| 2026-05-05 08:44 | 51.47717 | -0.52914 | 676 ft | 125 kts | 87° |
| 2026-05-05 08:44 | 51.47722 | -0.51507 | 466 ft | 128 kts | 85° |
| 2026-05-05 08:44 | 51.47742 | -0.50164 | 345 ft | 129 kts | 86° |
| 2026-05-05 08:45 | 51.47751 | -0.49145 | 197 ft | 130 kts | 88° |
| 2026-05-05 08:45 | 51.47755 | -0.47921 | 90 ft | 120 kts | 87° |
| 2026-05-05 08:45 | 51.47761 | -0.46806 | 87 ft | 78 kts | 90° |
| 2026-05-05 08:45 | 51.47760 | -0.46108 | 85 ft | 53 kts | 89° |
| 2026-05-05 08:46 | 51.47758 | -0.45580 | 83 ft | 31 kts | 101° |
| 2026-05-05 08:46 | 51.47710 | -0.45485 | 88 ft | 11 kts | 159° |
| 2026-05-05 08:46 | 51.47632 | -0.45469 | 85 ft | 12 kts | 173° |
| 2026-05-05 08:46 | 51.47602 | -0.45441 | 86 ft | 4 kts | 123° |
| 2026-05-05 08:47 | 51.47596 | -0.45353 | 88 ft | 14 kts | 91° |
| 2026-05-05 08:47 | 51.47597 | -0.45129 | 85 ft | 25 kts | 89° |
| 2026-05-05 08:47 | 51.47599 | -0.44837 | 85 ft | 26 kts | 89° |
| 2026-05-05 08:47 | 51.47560 | -0.44668 | 87 ft | 13 kts | 164° |
| 2026-05-05 08:48 | 51.47486 | -0.44580 | 88 ft | 13 kts | 148° |
| 2026-05-05 08:48 | 51.47389 | -0.44560 | 85 ft | 15 kts | 179° |
| 2026-05-05 08:48 | 51.47280 | -0.44561 | 85 ft | 17 kts | 180° |
| 2026-05-05 08:48 | 51.47160 | -0.44558 | 85 ft | 18 kts | 179° |
| 2026-05-05 08:49 | 51.47054 | -0.44558 | 85 ft | 7 kts | 181° |
| 2026-05-05 08:49 | 51.47002 | -0.44577 | 87 ft | 8 kts | 226° |
| 2026-05-05 08:49 | 51.46995 | -0.44610 | 88 ft | 5 kts | 272° |
| 2026-05-05 08:49 | 51.46996 | -0.44674 | 85 ft | 0 kts | 268° |